EST,Max TemperatureF,Mean TemperatureF,Min TemperatureF,Max Dew PointF,MeanDew PointF,Min DewpointF,Max Humidity, Mean Humidity, Min Humidity, Max Sea Level PressureIn, Mean Sea Level PressureIn, Min Sea Level PressureIn, Max VisibilityMiles, Mean VisibilityMiles, Min VisibilityMiles, Max Wind SpeedMPH, Mean Wind SpeedMPH, Max Gust SpeedMPH,PrecipitationIn, CloudCover, Events, WindDirDegrees
2011-11-1,54,42,30,36,30,27,85,65,44,30.35,30.32,30.29,10,10,5,12,7,,0.00,0,,146
2011-11-2,55,43,30,36,30,27,85,64,43,30.38,30.30,30.21,10,10,10,13,7,,0.00,0,,152
2011-11-3,55,44,32,39,34,28,89,68,47,30.19,30.00,29.89,10,10,10,13,6,17,0.00,1,,178
2011-11-4,43,37,30,37,27,18,85,67,48,30.30,30.10,29.95,10,10,10,18,9,28,0.00,4,,335
2011-11-5,45,34,23,27,23,19,88,67,45,30.46,30.41,30.30,10,10,10,13,5,,0.00,0,,58
2011-11-6,54,40,25,27,19,16,81,53,24,30.47,30.40,30.31,10,10,10,12,6,16,0.00,0,,153
2011-11-7,57,42,27,39,30,19,82,63,43,30.29,30.24,30.18,10,10,10,9,4,,0.00,2,,139
2011-11-8,63,51,39,46,42,36,92,72,52,30.26,30.22,30.19,10,10,8,10,5,,0.00,3,,141
2011-11-9,70,57,43,48,42,34,89,60,31,30.19,30.10,29.98,10,10,9,16,9,23,0.00,0,,149
2011-11-10,64,52,39,48,44,34,86,69,52,29.98,29.80,29.64,10,10,5,13,9,18,0.00,6,,121
2011-11-11,43,40,36,34,28,19,85,67,49,29.83,29.62,29.52,10,10,8,18,9,28,0.05,7,,303
2011-11-12,48,41,34,28,25,19,75,56,37,30.02,29.93,29.84,10,10,10,16,10,28,0.00,3,,225
2011-11-13,64,50,36,34,29,25,70,47,23,30.06,29.97,29.85,10,10,10,15,11,22,0.00,1,,136
2011-11-14,63,57,50,50,42,34,96,71,45,29.82,29.75,29.61,10,9,3,10,5,21,0.03,5,,157
2011-11-15,61,51,41,52,43,36,89,72,55,29.94,29.78,29.56,10,10,10,21,8,29,0.00,3,,243
2011-11-16,55,46,37,48,42,34,93,80,66,29.94,29.83,29.72,10,8,0,15,5,,0.09,5,,143
2011-11-17,48,41,34,41,24,18,82,64,45,29.89,29.82,29.75,10,10,10,17,8,22,0.00,3,,297
2011-11-18,39,35,30,25,19,18,69,57,44,30.31,30.18,29.90,10,10,10,14,7,23,0.00,4,,244
2011-11-19,54,41,28,21,18,14,63,43,22,30.29,30.20,30.11,10,10,10,12,7,22,0.00,3,,151
2011-11-20,61,49,37,43,36,21,70,61,51,30.10,30.00,29.93,10,10,10,16,9,27,0.00,7,,230
2011-11-21,41,33,25,30,22,18,81,64,47,30.37,30.30,30.15,10,10,10,10,6,17,0.00,3,,343
2011-11-22,36,28,19,30,21,16,92,74,56,30.42,30.32,30.13,10,9,2,8,3,,0.00,2,,36
2011-11-23,36,32,28,32,29,27,92,84,75,30.09,29.87,29.72,10,6,2,21,9,33,0.55,8,,15
2011-11-24,36,33,30,32,28,25,92,84,75,30.13,30.09,30.02,10,9,3,7,3,,0.00,8,,3
2011-11-25,54,42,30,37,33,21,92,65,37,30.08,30.04,30.00,10,9,3,10,3,,0.00,1,,243
2011-11-26,57,47,37,39,35,32,82,65,48,30.18,30.13,30.03,10,10,10,13,6,17,0.00,0,,139
2011-11-27,52,44,36,39,36,32,89,75,61,30.16,30.09,30.01,10,10,10,22,15,27,0.00,1,,131
2011-11-28,61,54,46,52,48,41,100,80,60,30.10,30.03,29.97,10,10,9,12,5,24,0.00,7,,213
2011-11-29,63,54,45,54,50,45,100,86,72,30.07,29.95,29.70,10,8,0,21,12,31,0.19,7,,140
2011-11-30,59,49,39,57,38,28,93,75,56,29.79,29.59,29.48,10,10,5,17,9,27,0.29,7,,211